Time;durP1;ratioP1;P1;durP2;ratioP2;P2;SDS_P1;SDS_P2;PMS_P1;PMS_P2;Temp;Humidity;BMP_temperature;BMP_pressure;BME280_temperature;BME280_humidity;BME280_pressure;Samples;Min_cycle;Max_cycle;Signal;HPM_P1;HPM_P2
2023/01/02 00:01:00;;;;;;;21.25;7.13;;;;;;;;;;5044674;28;20036;-82
2023/01/02 00:03:28;;;;;;;19.42;6.95;;;;;;;;;;5043893;28;20053;-82
2023/01/02 00:05:56;;;;;;;19.27;6.85;;;;;;;;;;5049588;28;20053;-82
2023/01/02 00:08:26;;;;;;;10.65;6.90;;;;;;;;;;5049766;28;20052;-82
2023/01/02 00:10:53;;;;;;;8.95;6.82;;;;;;;;;;5050969;28;20033;-82
2023/01/02 00:13:21;;;;;;;11.52;6.55;;;;;;;;;;5044358;28;20375;-82
2023/01/02 00:15:48;;;;;;;7.22;5.43;;;;;;;;;;5043571;28;20565;-82
2023/01/02 00:18:16;;;;;;;7.70;6.18;;;;;;;;;;5037089;28;20037;-82
2023/01/02 00:20:43;;;;;;;13.23;7.10;;;;;;;;;;5041727;28;20045;-82
2023/01/02 00:23:10;;;;;;;7.63;5.75;;;;;;;;;;5046587;28;20049;-82
2023/01/02 00:25:38;;;;;;;6.18;5.35;;;;;;;;;;5046771;28;20080;-82
2023/01/02 00:28:05;;;;;;;9.77;6.63;;;;;;;;;;5055329;28;20466;-83
2023/01/02 00:30:32;;;;;;;8.15;5.63;;;;;;;;;;5038711;28;20044;-81
2023/01/02 00:33:05;;;;;;;10.70;6.45;;;;;;;;;;5038268;28;20032;-82
2023/01/02 00:35:33;;;;;;;7.28;5.97;;;;;;;;;;5056742;28;20401;-81
2023/01/02 00:38:00;;;;;;;7.13;5.18;;;;;;;;;;5056499;28;20105;-83
2023/01/02 00:40:30;;;;;;;16.20;14.68;;;;;;;;;;5030796;28;20041;-84
2023/01/02 00:42:57;;;;;;;18.15;6.50;;;;;;;;;;5033904;28;20455;-83
2023/01/02 00:45:24;;;;;;;14.40;6.22;;;;;;;;;;5056544;28;20049;-82
2023/01/02 00:47:52;;;;;;;8.13;6.28;;;;;;;;;;5056954;28;20055;-80
2023/01/02 00:50:19;;;;;;;8.07;5.05;;;;;;;;;;5056945;28;20068;-81
2023/01/02 00:52:46;;;;;;;8.70;6.07;;;;;;;;;;5059764;28;20060;-81
2023/01/02 00:55:13;;;;;;;18.63;5.53;;;;;;;;;;5046621;28;20152;-80
2023/01/02 00:57:41;;;;;;;12.32;6.88;;;;;;;;;;5047366;28;20041;-82
2023/01/02 01:00:08;;;;;;;12.77;6.13;;;;;;;;;;5045177;28;20103;-82
2023/01/02 01:02:35;;;;;;;13.40;6.40;;;;;;;;;;5046460;28;20504;-81
2023/01/02 01:05:03;;;;;;;14.48;6.28;;;;;;;;;;5037961;28;20045;-82
2023/01/02 01:07:31;;;;;;;8.25;5.30;;;;;;;;;;5045064;28;20045;-81
2023/01/02 01:09:58;;;;;;;7.40;5.40;;;;;;;;;;5028120;28;20598;-81
2023/01/02 01:12:25;;;;;;;7.75;5.80;;;;;;;;;;5043304;28;20052;-82
2023/01/02 01:14:52;;;;;;;5.50;4.97;;;;;;;;;;5047808;28;20096;-81
2023/01/02 01:17:20;;;;;;;12.13;7.35;;;;;;;;;;5042005;28;20071;-82
2023/01/02 01:19:47;;;;;;;15.27;6.82;;;;;;;;;;5039589;28;20564;-80
2023/01/02 01:22:14;;;;;;;17.25;6.80;;;;;;;;;;5046431;28;20049;-82
2023/01/02 01:24:42;;;;;;;8.20;5.70;;;;;;;;;;5045324;28;20603;-83
2023/01/02 01:27:09;;;;;;;7.13;5.63;;;;;;;;;;5036868;28;20065;-82
2023/01/02 01:29:36;;;;;;;13.98;6.70;;;;;;;;;;5036472;28;20514;-83
2023/01/02 01:32:04;;;;;;;9.63;6.00;;;;;;;;;;5042951;28;20049;-80
2023/01/02 01:34:31;;;;;;;13.80;7.32;;;;;;;;;;5047671;28;20045;-82
2023/01/02 01:36:58;;;;;;;7.63;6.15;;;;;;;;;;5055008;28;20051;-83
2023/01/02 01:39:25;;;;;;;8.48;6.22;;;;;;;;;;5054471;28;20044;-82
2023/01/02 01:41:53;;;;;;;8.35;5.40;;;;;;;;;;5049935;28;20584;-82
2023/01/02 01:44:40;;;;;;;12.90;7.40;;;;;;;;;;5053670;28;20820;-81
2023/01/02 01:47:22;;;;;;;8.55;5.60;;;;;;;;;;5044256;28;20061;-82
2023/01/02 01:50:16;;;;;;;6.82;5.70;;;;;;;;;;5044972;28;20044;-81
2023/01/02 01:52:47;;;;;;;9.80;5.47;;;;;;;;;;5037424;28;20160;-82
2023/01/02 01:55:23;;;;;;;4.72;4.20;;;;;;;;;;5043721;28;20104;-82
2023/01/02 01:57:53;;;;;;;6.22;4.57;;;;;;;;;;5042974;28;20037;-82
2023/01/02 02:00:20;;;;;;;11.40;5.57;;;;;;;;;;5038053;28;20064;-82
2023/01/02 02:02:49;;;;;;;7.57;4.97;;;;;;;;;;5037919;28;20041;-82
2023/01/02 02:05:19;;;;;;;9.00;7.88;;;;;;;;;;5038414;28;20080;-82
2023/01/02 02:07:50;;;;;;;10.35;5.28;;;;;;;;;;5038132;28;20465;-86
2023/01/02 02:10:18;;;;;;;10.57;6.10;;;;;;;;;;5047692;28;20091;-81
2023/01/02 02:12:45;;;;;;;8.32;6.45;;;;;;;;;;5043783;28;20040;-82
2023/01/02 02:15:16;;;;;;;11.63;6.47;;;;;;;;;;5046129;28;20060;-82
2023/01/02 02:17:50;;;;;;;12.18;6.82;;;;;;;;;;5043002;28;20037;-82
2023/01/02 02:20:30;;;;;;;10.55;6.10;;;;;;;;;;5053000;28;20039;-82
2023/01/02 02:23:19;;;;;;;12.00;5.00;;;;;;;;;;5049719;28;20048;-81
2023/01/02 02:26:04;;;;;;;14.00;5.93;;;;;;;;;;5054901;28;20079;-81
2023/01/02 02:28:32;;;;;;;11.65;6.10;;;;;;;;;;5047841;28;20041;-81
2023/01/02 02:31:07;;;;;;;10.95;5.63;;;;;;;;;;5041159;28;20045;-82
2023/01/02 02:33:43;;;;;;;17.20;9.52;;;;;;;;;;5047608;28;20051;-82
2023/01/02 02:36:19;;;;;;;7.05;5.38;;;;;;;;;;5038164;28;20054;-82
2023/01/02 02:38:47;;;;;;;13.77;5.35;;;;;;;;;;5044673;28;20124;-82
2023/01/02 02:41:34;;;;;;;16.75;6.50;;;;;;;;;;5044386;28;20049;-82
2023/01/02 02:44:11;;;;;;;19.35;6.88;;;;;;;;;;5007661;28;20407;-81
2023/01/02 02:46:54;;;;;;;15.30;7.82;;;;;;;;;;5049958;28;20049;-82
2023/01/02 02:49:36;;;;;;;16.15;7.00;;;;;;;;;;5045196;28;20097;-82
2023/01/02 02:52:16;;;;;;;20.48;7.18;;;;;;;;;;5039380;28;20608;-81
2023/01/02 02:54:47;;;;;;;27.92;8.68;;;;;;;;;;5047496;28;20037;-82
2023/01/02 02:57:15;;;;;;;18.35;6.45;;;;;;;;;;5043392;28;20052;-82
2023/01/02 02:59:42;;;;;;;16.83;6.68;;;;;;;;;;5045794;28;20053;-81
2023/01/02 03:02:14;;;;;;;19.75;7.75;;;;;;;;;;5045395;28;20059;-82
2023/01/02 03:04:41;;;;;;;;;;;;;;;;;;5033752;28;20076;-82
2023/01/02 03:07:15;;;;;;;9.70;6.30;;;;;;;;;;5045427;28;19989;-82
2023/01/02 03:09:48;;;;;;;12.68;6.43;;;;;;;;;;5041416;28;20060;-83
2023/01/02 03:12:25;;;;;;;10.93;5.85;;;;;;;;;;5039208;28;20462;-82
2023/01/02 03:15:07;;;;;;;10.50;6.32;;;;;;;;;;5045806;28;20057;-82
2023/01/02 03:17:44;;;;;;;9.77;5.95;;;;;;;;;;5046281;28;20112;-83
2023/01/02 03:20:13;;;;;;;6.20;4.50;;;;;;;;;;5036296;28;20080;-82
2023/01/02 03:22:43;;;;;;;15.30;6.03;;;;;;;;;;5035892;28;20441;-83
2023/01/02 03:25:11;;;;;;;6.38;4.82;;;;;;;;;;5035017;28;20043;-82
2023/01/02 03:27:41;;;;;;;9.88;6.40;;;;;;;;;;5037491;28;20702;-82
2023/01/02 03:30:12;;;;;;;16.60;6.88;;;;;;;;;;5042271;28;20064;-82
2023/01/02 03:32:42;;;;;;;22.92;6.30;;;;;;;;;;5048970;28;20045;-82
2023/01/02 03:35:11;;;;;;;15.00;4.65;;;;;;;;;;5051149;28;20065;-82
2023/01/02 03:37:40;;;;;;;7.85;4.93;;;;;;;;;;5051373;28;20075;-82
2023/01/02 03:40:11;;;;;;;9.65;5.00;;;;;;;;;;5049279;28;20098;-82
2023/01/02 03:42:44;;;;;;;16.33;7.03;;;;;;;;;;5051003;28;20040;-83
2023/01/02 03:45:15;;;;;;;15.70;6.93;;;;;;;;;;5050587;28;20056;-82
2023/01/02 03:47:48;;;;;;;11.68;5.85;;;;;;;;;;5048821;28;20073;-83
2023/01/02 03:50:19;;;;;;;17.48;6.88;;;;;;;;;;5046086;28;20045;-82
2023/01/02 03:52:46;;;;;;;17.77;7.13;;;;;;;;;;5045772;28;20045;-82
2023/01/02 03:55:14;;;;;;;23.70;6.28;;;;;;;;;;5044680;28;20482;-83
2023/01/02 03:57:57;;;;;;;9.70;7.75;;;;;;;;;;5051897;28;20064;-82
2023/01/02 04:00:27;;;;;;;12.05;6.95;;;;;;;;;;5046525;28;20034;-82
2023/01/02 04:02:59;;;;;;;15.45;6.38;;;;;;;;;;5047185;28;20364;-82
2023/01/02 04:05:48;;;;;;;7.47;6.00;;;;;;;;;;5036509;28;20053;-81
2023/01/02 04:08:18;;;;;;;8.25;5.50;;;;;;;;;;5047796;28;20053;-82
2023/01/02 04:10:47;;;;;;;12.75;6.20;;;;;;;;;;5043887;28;20043;-83
2023/01/02 04:13:26;;;;;;;10.15;6.55;;;;;;;;;;5042643;28;20049;-82
2023/01/02 04:15:54;;;;;;;13.80;6.43;;;;;;;;;;5044856;28;20040;-82
2023/01/02 04:18:21;;;;;;;19.42;8.18;;;;;;;;;;5047034;28;20055;-82
2023/01/02 04:20:51;;;;;;;12.07;5.65;;;;;;;;;;5036936;28;20769;-82
2023/01/02 04:23:21;;;;;;;11.68;5.47;;;;;;;;;;5036110;28;20530;-84
2023/01/02 04:25:52;;;;;;;9.93;6.00;;;;;;;;;;5056161;28;20048;-82
2023/01/02 04:28:23;;;;;;;20.60;16.27;;;;;;;;;;5057519;28;20095;-83
2023/01/02 04:30:53;;;;;;;7.60;6.77;;;;;;;;;;5050105;28;20667;-82
2023/01/02 04:33:22;;;;;;;10.25;5.68;;;;;;;;;;5043577;28;20041;-81
2023/01/02 04:35:49;;;;;;;6.32;5.28;;;;;;;;;;5041694;28;20549;-82
2023/01/02 04:38:16;;;;;;;10.25;5.57;;;;;;;;;;5046788;28;20037;-82
2023/01/02 04:40:44;;;;;;;6.95;4.93;;;;;;;;;;5049500;28;20033;-82
2023/01/02 04:43:19;;;;;;;6.40;5.15;;;;;;;;;;5045398;28;20533;-82
2023/01/02 04:45:50;;;;;;;8.50;5.10;;;;;;;;;;5043993;28;20108;-83
2023/01/02 04:48:17;;;;;;;6.95;5.18;;;;;;;;;;5041652;28;20047;-82
2023/01/02 04:50:44;;;;;;;4.03;3.63;;;;;;;;;;5030316;28;20049;-82
2023/01/02 04:53:12;;;;;;;4.63;4.13;;;;;;;;;;5038761;28;20068;-80
2023/01/02 04:55:39;;;;;;;11.02;4.65;;;;;;;;;;5038690;28;20073;-83
2023/01/02 04:58:07;;;;;;;12.73;4.47;;;;;;;;;;5033587;28;20065;-82
2023/01/02 05:00:34;;;;;;;7.70;5.03;;;;;;;;;;5016043;28;20065;-83
2023/01/02 05:03:02;;;;;;;4.78;4.28;;;;;;;;;;5037495;28;20732;-82
2023/01/02 05:05:30;;;;;;;10.05;4.60;;;;;;;;;;5037804;28;20049;-82
2023/01/02 05:07:58;;;;;;;12.57;5.13;;;;;;;;;;5032426;28;20060;-82
2023/01/02 05:10:25;;;;;;;4.70;4.05;;;;;;;;;;5033969;28;20129;-82
2023/01/02 05:12:53;;;;;;;5.10;4.28;;;;;;;;;;5052622;28;20045;-83
2023/01/02 05:15:20;;;;;;;8.43;4.95;;;;;;;;;;5051878;28;20049;-82
2023/01/02 05:17:48;;;;;;;8.63;4.80;;;;;;;;;;5066409;28;20033;-82
2023/01/02 05:20:15;;;;;;;7.65;5.15;;;;;;;;;;5070510;28;20075;-80
2023/01/02 05:25:33;;;;;;;8.35;4.63;;;;;;;;;;5034164;28;20137;-82
2023/01/02 05:28:01;;;;;;;4.72;4.25;;;;;;;;;;5032952;28;20053;-82
2023/01/02 05:30:29;;;;;;;14.10;5.15;;;;;;;;;;5032407;28;20814;-82
2023/01/02 05:32:56;;;;;;;6.80;4.18;;;;;;;;;;5046697;28;20041;-81
2023/01/02 05:35:23;;;;;;;9.57;4.35;;;;;;;;;;5045877;28;20118;-82
2023/01/02 05:37:58;;;;;;;14.38;4.78;;;;;;;;;;5041705;28;20116;-82
2023/01/02 05:40:26;;;;;;;16.23;4.45;;;;;;;;;;5039246;28;20558;-81
2023/01/02 05:42:53;;;;;;;27.75;5.53;;;;;;;;;;5044753;28;20044;-82
2023/01/02 05:45:20;;;;;;;21.52;5.03;;;;;;;;;;5046361;28;20056;-81
2023/01/02 05:47:48;;;;;;;9.00;5.03;;;;;;;;;;5046823;28;20050;-83
2023/01/02 05:50:15;;;;;;;7.35;4.53;;;;;;;;;;5041781;28;20045;-82
2023/01/02 05:52:42;;;;;;;6.53;4.32;;;;;;;;;;5046508;28;20045;-84
2023/01/02 05:55:12;;;;;;;19.75;5.30;;;;;;;;;;5042676;28;20130;-83
2023/01/02 05:57:41;;;;;;;12.68;4.57;;;;;;;;;;5048011;28;20042;-82
2023/01/02 06:00:08;;;;;;;9.15;5.22;;;;;;;;;;5052664;28;20116;-82
2023/01/02 06:02:41;;;;;;;15.93;6.63;;;;;;;;;;5049130;28;20046;-83
2023/01/02 06:05:14;;;;;;;11.82;5.90;;;;;;;;;;5041053;28;20056;-82
2023/01/02 06:07:42;;;;;;;21.65;7.05;;;;;;;;;;5053280;28;20715;-82
2023/01/02 06:10:09;;;;;;;14.93;6.20;;;;;;;;;;5044543;28;20037;-82
2023/01/02 06:12:36;;;;;;;12.45;5.35;;;;;;;;;;5033725;28;20040;-82
2023/01/02 06:15:04;;;;;;;15.90;6.47;;;;;;;;;;5053921;28;20045;-82
2023/01/02 06:17:31;;;;;;;9.25;4.93;;;;;;;;;;5048988;28;20045;-82
2023/01/02 06:19:58;;;;;;;16.30;5.50;;;;;;;;;;5034898;28;20491;-82
2023/01/02 06:22:25;;;;;;;9.98;4.70;;;;;;;;;;5026530;28;20041;-82
2023/01/02 06:24:53;;;;;;;18.13;5.15;;;;;;;;;;5053248;28;20060;-82
2023/01/02 06:27:20;;;;;;;24.33;6.63;;;;;;;;;;5043892;28;20144;-82
2023/01/02 06:29:47;;;;;;;15.35;6.45;;;;;;;;;;5039712;28;20040;-81
2023/01/02 06:32:14;;;;;;;16.08;6.43;;;;;;;;;;5054171;28;20472;-82
2023/01/02 06:34:42;;;;;;;13.63;4.85;;;;;;;;;;5052685;28;20128;-83
2023/01/02 06:37:09;;;;;;;13.98;6.20;;;;;;;;;;5034538;28;20045;-82
2023/01/02 06:39:37;;;;;;;12.05;5.57;;;;;;;;;;5054315;28;20073;-82
2023/01/02 06:42:04;;;;;;;18.13;7.13;;;;;;;;;;5043138;28;20041;-81
2023/01/02 06:44:32;;;;;;;11.02;7.63;;;;;;;;;;5049504;28;20060;-81
2023/01/02 06:47:00;;;;;;;9.02;6.50;;;;;;;;;;5057974;28;20041;-82
2023/01/02 06:49:27;;;;;;;7.45;5.13;;;;;;;;;;5050211;28;20080;-80
2023/01/02 06:51:55;;;;;;;7.25;6.10;;;;;;;;;;5054220;28;20394;-82
2023/01/02 06:54:22;;;;;;;10.25;5.93;;;;;;;;;;5044370;28;20140;-82
2023/01/02 06:56:50;;;;;;;5.97;5.30;;;;;;;;;;5045271;28;20053;-82
2023/01/02 06:59:17;;;;;;;10.93;5.40;;;;;;;;;;5048300;28;20056;-82
2023/01/02 07:01:44;;;;;;;13.50;6.45;;;;;;;;;;5041390;28;20045;-83
2023/01/02 07:04:15;;;;;;;16.52;6.88;;;;;;;;;;5019547;28;20821;-83
2023/01/02 07:06:43;;;;;;;18.52;7.57;;;;;;;;;;5038320;28;20052;-82
2023/01/02 07:09:10;;;;;;;15.18;7.45;;;;;;;;;;5031127;28;20509;-83
2023/01/02 07:11:38;;;;;;;13.13;7.78;;;;;;;;;;5032900;28;20570;-83
2023/01/02 07:14:05;;;;;;;11.25;6.82;;;;;;;;;;5032562;28;20355;-82
2023/01/02 07:16:33;;;;;;;15.80;6.13;;;;;;;;;;5038570;28;20394;-82
2023/01/02 07:19:00;;;;;;;9.55;5.70;;;;;;;;;;5036487;28;20061;-82
2023/01/02 07:21:28;;;;;;;10.90;5.50;;;;;;;;;;5043022;28;20052;-82
2023/01/02 07:23:55;;;;;;;4.30;3.90;;;;;;;;;;5051324;28;20040;-82
2023/01/02 07:26:22;;;;;;;15.68;5.18;;;;;;;;;;5052140;28;20561;-82
2023/01/02 07:28:50;;;;;;;10.30;7.22;;;;;;;;;;5047656;28;20052;-82
2023/01/02 07:31:19;;;;;;;16.95;9.98;;;;;;;;;;5039134;28;20450;-82
2023/01/02 07:33:46;;;;;;;10.50;7.68;;;;;;;;;;5042768;28;20044;-82
2023/01/02 07:36:16;;;;;;;12.57;7.13;;;;;;;;;;5049253;28;20253;-82
2023/01/02 07:38:43;;;;;;;8.38;5.90;;;;;;;;;;5048907;28;20048;-80
2023/01/02 07:41:15;;;;;;;12.02;5.20;;;;;;;;;;5026038;28;20049;-82
2023/01/02 07:43:43;;;;;;;5.45;4.93;;;;;;;;;;5034040;28;20075;-82
2023/01/02 07:46:10;;;;;;;11.32;6.13;;;;;;;;;;5051570;28;20037;-82
2023/01/02 07:48:37;;;;;;;11.30;5.60;;;;;;;;;;5033093;28;20060;-82
2023/01/02 07:51:05;;;;;;;10.82;6.28;;;;;;;;;;5032175;28;20646;-82
2023/01/02 07:53:33;;;;;;;8.70;6.43;;;;;;;;;;5031686;28;20550;-82
2023/01/02 07:56:00;;;;;;;11.57;6.70;;;;;;;;;;5042500;28;20091;-81
2023/01/02 07:58:28;;;;;;;9.73;5.47;;;;;;;;;;5024347;28;20038;-82
2023/01/02 08:00:55;;;;;;;10.43;5.68;;;;;;;;;;5042340;28;20030;-81
2023/01/02 08:03:31;;;;;;;5.70;4.97;;;;;;;;;;5036531;28;20045;-82
2023/01/02 08:06:12;;;;;;;7.82;5.22;;;;;;;;;;5041734;28;20037;-81
2023/01/02 08:08:40;;;;;;;9.50;5.72;;;;;;;;;;5034996;28;20049;-82
2023/01/02 08:11:08;;;;;;;8.63;5.50;;;;;;;;;;5036584;28;20049;-80
2023/01/02 08:13:36;;;;;;;21.15;6.43;;;;;;;;;;5048956;28;20041;-81
2023/01/02 08:16:04;;;;;;;8.45;4.35;;;;;;;;;;5048631;28;20045;-80
2023/01/02 08:18:31;;;;;;;6.28;4.70;;;;;;;;;;5048834;28;20046;-82
2023/01/02 08:20:58;;;;;;;10.30;5.18;;;;;;;;;;5041205;28;20033;-81
2023/01/02 08:23:26;;;;;;;11.95;6.05;;;;;;;;;;5037227;28;20041;-82
2023/01/02 08:25:57;;;;;;;10.82;6.28;;;;;;;;;;5043814;28;20041;-84
2023/01/02 08:28:25;;;;;;;10.25;5.72;;;;;;;;;;5040975;28;20075;-81
2023/01/02 08:30:52;;;;;;;10.43;6.40;;;;;;;;;;5042284;28;20045;-82
2023/01/02 08:33:19;;;;;;;10.88;6.68;;;;;;;;;;5041810;28;20834;-82
2023/01/02 08:35:47;;;;;;;13.20;6.15;;;;;;;;;;5050241;28;20091;-82
2023/01/02 08:38:14;;;;;;;14.85;6.28;;;;;;;;;;5047798;28;20037;-82
2023/01/02 08:40:41;;;;;;;16.23;6.55;;;;;;;;;;5043673;28;20627;-82
2023/01/02 08:43:09;;;;;;;19.30;7.35;;;;;;;;;;5048871;28;20096;-82
2023/01/02 08:45:36;;;;;;;12.70;6.65;;;;;;;;;;5042155;28;20052;-81
2023/01/02 08:48:03;;;;;;;10.00;6.45;;;;;;;;;;5044732;28;20643;-82
2023/01/02 08:50:48;;;;;;;9.93;6.78;;;;;;;;;;5046087;28;20056;-81
2023/01/02 08:53:16;;;;;;;10.32;7.05;;;;;;;;;;5047510;28;20037;-82
2023/01/02 08:55:43;;;;;;;13.82;7.22;;;;;;;;;;5049713;28;20036;-83
2023/01/02 08:58:11;;;;;;;9.90;6.22;;;;;;;;;;5051371;28;20453;-81
2023/01/02 09:00:38;;;;;;;14.90;6.90;;;;;;;;;;5046247;28;20041;-82
2023/01/02 09:03:05;;;;;;;12.05;6.68;;;;;;;;;;5051992;28;20504;-81
2023/01/02 09:05:33;;;;;;;13.18;7.28;;;;;;;;;;5050478;28;20053;-82
2023/01/02 09:08:01;;;;;;;11.25;6.57;;;;;;;;;;5047588;28;20040;-81
2023/01/02 09:10:28;;;;;;;21.70;8.25;;;;;;;;;;5042222;28;20581;-83
2023/01/02 09:12:57;;;;;;;15.57;7.85;;;;;;;;;;5028678;28;20045;-82
2023/01/02 09:15:24;;;;;;;13.30;7.20;;;;;;;;;;5043589;28;20084;-83
2023/01/02 09:17:53;;;;;;;11.77;8.43;;;;;;;;;;5043371;28;20143;-82
2023/01/02 09:20:20;;;;;;;10.85;8.10;;;;;;;;;;5042907;28;20037;-84
2023/01/02 09:22:47;;;;;;;24.00;8.23;;;;;;;;;;5051821;28;20124;-82
2023/01/02 09:25:15;;;;;;;14.88;8.25;;;;;;;;;;5041846;28;20056;-81
2023/01/02 09:27:50;;;;;;;11.35;7.45;;;;;;;;;;5041620;28;20037;-82
2023/01/02 09:30:18;;;;;;;18.80;7.68;;;;;;;;;;5040062;28;20116;-84
2023/01/02 09:32:49;;;;;;;10.25;6.60;;;;;;;;;;5042968;28;20041;-81
2023/01/02 09:35:17;;;;;;;9.57;6.72;;;;;;;;;;5045269;28;20064;-82
2023/01/02 09:37:44;;;;;;;16.35;8.20;;;;;;;;;;5034952;28;20051;-83
2023/01/02 09:40:13;;;;;;;15.30;8.00;;;;;;;;;;5035128;28;20199;-84
2023/01/02 09:42:42;;;;;;;17.90;7.78;;;;;;;;;;5061622;28;20091;-82
2023/01/02 09:45:09;;;;;;;13.73;8.10;;;;;;;;;;5047859;28;20041;-80
2023/01/02 09:47:38;;;;;;;18.13;8.20;;;;;;;;;;5062641;28;20132;-82
2023/01/02 09:50:10;;;;;;;10.98;7.68;;;;;;;;;;5056341;28;20049;-82
2023/01/02 09:52:39;;;;;;;8.75;6.75;;;;;;;;;;5052931;28;20040;-81
2023/01/02 09:55:20;;;;;;;11.75;6.85;;;;;;;;;;5034508;28;20045;-81
2023/01/02 09:57:54;;;;;;;13.68;8.13;;;;;;;;;;5054921;28;20067;-79
2023/01/02 10:00:26;;;;;;;13.63;8.07;;;;;;;;;;5054758;28;20077;-82
2023/01/02 10:03:04;;;;;;;11.23;8.15;;;;;;;;;;5034079;28;20060;-83
2023/01/02 10:05:40;;;;;;;17.20;8.50;;;;;;;;;;5053634;28;20128;-83
2023/01/02 10:08:10;;;;;;;10.18;7.32;;;;;;;;;;5036780;28;20056;-82
2023/01/02 10:10:43;;;;;;;15.77;8.88;;;;;;;;;;5052554;28;20053;-83
2023/01/02 10:13:10;;;;;;;13.80;8.48;;;;;;;;;;5052831;28;20048;-82
2023/01/02 10:15:41;;;;;;;13.23;11.35;;;;;;;;;;5056110;28;20106;-82
2023/01/02 10:18:29;;;;;;;12.10;8.93;;;;;;;;;;5037630;28;20051;-83
2023/01/02 10:21:02;;;;;;;12.13;8.90;;;;;;;;;;5023618;28;20084;-83
2023/01/02 10:23:35;;;;;;;13.73;11.85;;;;;;;;;;5037266;28;20504;-82
2023/01/02 10:26:07;;;;;;;11.02;8.32;;;;;;;;;;5037836;28;20072;-83
2023/01/02 10:28:40;;;;;;;16.38;12.13;;;;;;;;;;5020062;28;20464;-83
2023/01/02 10:31:10;;;;;;;10.73;9.05;;;;;;;;;;5036287;28;20052;-84
2023/01/02 10:33:50;;;;;;;12.52;9.23;;;;;;;;;;5036146;28;20048;-83
2023/01/02 10:36:23;;;;;;;13.93;12.68;;;;;;;;;;5054273;28;20057;-83
2023/01/02 10:38:51;;;;;;;14.57;11.55;;;;;;;;;;5036246;28;20098;-84
2023/01/02 10:41:19;;;;;;;11.38;8.32;;;;;;;;;;5036665;28;20041;-85
2023/01/02 10:43:51;;;;;;;11.80;8.32;;;;;;;;;;5037276;28;20039;-84
2023/01/02 10:46:18;;;;;;;9.38;7.15;;;;;;;;;;5036026;28;20052;-84
2023/01/02 10:48:46;;;;;;;11.30;7.72;;;;;;;;;;5036384;28;20052;-83
2023/01/02 10:51:23;;;;;;;8.95;7.82;;;;;;;;;;5054742;28;20052;-82
2023/01/02 10:54:01;;;;;;;7.60;6.57;;;;;;;;;;5053518;28;20045;-83
2023/01/02 10:56:30;;;;;;;9.35;7.72;;;;;;;;;;5054033;28;20040;-83
2023/01/02 10:58:58;;;;;;;8.27;7.15;;;;;;;;;;5035365;28;20044;-83
2023/01/02 11:01:26;;;;;;;19.10;15.88;;;;;;;;;;5035947;28;20065;-85
2023/01/02 11:03:54;;;;;;;9.95;8.30;;;;;;;;;;5053606;28;20044;-82
2023/01/02 11:06:23;;;;;;;12.48;9.15;;;;;;;;;;5051821;28;20108;-83
2023/01/02 11:09:17;;;;;;;10.80;8.48;;;;;;;;;;5034791;28;20049;-84
2023/01/02 11:11:48;;;;;;;10.30;8.73;;;;;;;;;;5046467;28;20056;-82
2023/01/02 11:14:20;;;;;;;11.27;8.70;;;;;;;;;;5066983;28;20071;-83
2023/01/02 11:16:48;;;;;;;13.63;9.63;;;;;;;;;;5062416;28;20045;-84
2023/01/02 11:19:20;;;;;;;13.13;10.43;;;;;;;;;;5036038;28;20118;-83
2023/01/02 11:21:56;;;;;;;14.88;11.55;;;;;;;;;;5054831;28;20444;-83
2023/01/02 11:24:27;;;;;;;14.38;11.52;;;;;;;;;;5053484;28;20045;-83
2023/01/02 11:26:55;;;;;;;16.60;11.40;;;;;;;;;;5036651;28;20051;-84
2023/01/02 11:29:26;;;;;;;13.65;10.20;;;;;;;;;;5036851;28;20049;-83
2023/01/02 11:31:56;;;;;;;16.35;10.55;;;;;;;;;;5036240;28;20041;-84
2023/01/02 11:34:37;;;;;;;13.60;9.80;;;;;;;;;;5054566;28;20230;-83
2023/01/02 11:37:13;;;;;;;12.77;9.93;;;;;;;;;;5053682;28;20574;-83
2023/01/02 11:39:41;;;;;;;12.10;10.23;;;;;;;;;;5036232;28;20045;-83
2023/01/02 11:44:59;;;;;;;16.67;13.23;;;;;;;;;;5053300;28;20045;-83
2023/01/02 11:47:32;;;;;;;16.58;12.18;;;;;;;;;;5053188;28;20056;-84
2023/01/02 11:50:00;;;;;;;17.88;14.35;;;;;;;;;;5035184;28;20087;-84
2023/01/02 11:52:34;;;;;;;19.25;13.77;;;;;;;;;;5052563;28;20053;-83
2023/01/02 11:55:11;;;;;;;18.15;13.90;;;;;;;;;;5053056;28;20045;-83
2023/01/02 11:57:57;;;;;;;17.02;12.10;;;;;;;;;;5035905;28;20055;-83
2023/01/02 12:00:29;;;;;;;16.13;12.70;;;;;;;;;;5050131;28;20174;-83
2023/01/02 12:03:00;;;;;;;17.08;13.35;;;;;;;;;;5032748;28;20140;-82
2023/01/02 12:05:41;;;;;;;13.98;11.02;;;;;;;;;;5034758;28;20147;-84
2023/01/02 12:08:19;;;;;;;13.75;10.80;;;;;;;;;;5036152;28;20045;-84
2023/01/02 12:11:07;;;;;;;17.33;11.48;;;;;;;;;;5035366;28;20053;-83
2023/01/02 12:13:54;;;;;;;14.05;10.70;;;;;;;;;;5035768;28;20060;-83
2023/01/02 12:16:21;;;;;;;15.30;12.15;;;;;;;;;;5037070;28;20049;-84
2023/01/02 12:18:55;;;;;;;16.85;11.98;;;;;;;;;;5057722;28;20045;-81
2023/01/02 12:21:24;;;;;;;13.02;10.38;;;;;;;;;;5057577;28;20336;-84
2023/01/02 12:24:27;;;;;;;17.55;12.60;;;;;;;;;;5056035;28;20083;-83
2023/01/02 12:27:14;;;;;;;18.52;12.77;;;;;;;;;;5038548;28;20114;-83
2023/01/02 12:29:47;;;;;;;16.75;13.27;;;;;;;;;;5038510;28;20044;-83
2023/01/02 12:32:15;;;;;;;17.58;13.00;;;;;;;;;;5057178;28;20084;-83
2023/01/02 12:34:55;;;;;;;18.42;11.88;;;;;;;;;;5056772;28;20110;-83
2023/01/02 12:37:35;;;;;;;16.67;12.30;;;;;;;;;;5055950;28;20466;-82
2023/01/02 12:40:02;;;;;;;18.02;12.88;;;;;;;;;;5064449;28;20057;-83
2023/01/02 12:42:39;;;;;;;18.00;12.48;;;;;;;;;;5053996;28;20049;-84
2023/01/02 12:45:13;;;;;;;14.80;11.35;;;;;;;;;;5052210;28;20045;-84
2023/01/02 12:47:43;;;;;;;18.02;12.13;;;;;;;;;;5060520;28;20549;-83
2023/01/02 12:50:23;;;;;;;15.10;11.93;;;;;;;;;;5044460;28;20220;-83
2023/01/02 12:52:50;;;;;;;16.23;12.65;;;;;;;;;;5041838;28;20184;-83
2023/01/02 12:55:24;;;;;;;19.23;14.00;;;;;;;;;;5041081;28;20057;-84
2023/01/02 12:57:58;;;;;;;20.08;13.80;;;;;;;;;;5058687;28;20049;-83
2023/01/02 13:00:28;;;;;;;16.77;12.88;;;;;;;;;;5024652;28;20056;-83
2023/01/02 13:03:05;;;;;;;23.05;13.80;;;;;;;;;;5040198;28;20556;-85
2023/01/02 13:06:02;;;;;;;21.95;13.73;;;;;;;;;;5058413;28;20060;-83
2023/01/02 13:08:35;;;;;;;19.83;13.75;;;;;;;;;;5038157;28;20082;-85
2023/01/02 13:11:03;;;;;;;19.90;13.55;;;;;;;;;;5040523;28;20113;-85
2023/01/02 13:13:33;;;;;;;20.60;15.82;;;;;;;;;;5057819;28;20048;-82
2023/01/02 13:16:02;;;;;;;21.27;15.35;;;;;;;;;;5058112;28;20059;-85
2023/01/02 13:18:42;;;;;;;17.60;14.32;;;;;;;;;;5058607;28;20053;-83
2023/01/02 13:21:35;;;;;;;18.88;14.07;;;;;;;;;;5057803;28;20060;-83
2023/01/02 13:24:03;;;;;;;21.83;14.77;;;;;;;;;;5039693;28;20044;-82
2023/01/02 13:26:31;;;;;;;21.85;16.02;;;;;;;;;;5051169;28;20041;-83
2023/01/02 13:28:58;;;;;;;20.13;15.73;;;;;;;;;;5051114;28;20037;-82
2023/01/02 13:31:25;;;;;;;20.23;14.85;;;;;;;;;;5053369;28;20107;-83
2023/01/02 13:34:27;;;;;;;23.45;15.25;;;;;;;;;;5058226;28;20041;-83
2023/01/02 13:37:04;;;;;;;20.75;14.55;;;;;;;;;;5040289;28;20049;-85
2023/01/02 13:39:44;;;;;;;33.92;22.50;;;;;;;;;;5058077;28;20045;-81
2023/01/02 13:45:12;;;;;;;27.92;20.27;;;;;;;;;;5057449;28;20053;-83
2023/01/02 13:47:47;;;;;;;25.27;17.95;;;;;;;;;;5056691;28;20067;-82
2023/01/02 13:50:26;;;;;;;23.88;18.33;;;;;;;;;;5057531;28;20056;-83
2023/01/02 13:53:03;;;;;;;27.65;19.52;;;;;;;;;;5039076;28;20056;-84
2023/01/02 13:55:51;;;;;;;24.55;18.30;;;;;;;;;;5039486;28;20334;-84
2023/01/02 13:58:35;;;;;;;26.35;19.23;;;;;;;;;;5022866;28;20072;-83
2023/01/02 14:01:24;;;;;;;27.48;19.20;;;;;;;;;;5040051;28;20061;-84
2023/01/02 14:04:07;;;;;;;29.10;19.45;;;;;;;;;;5056462;28;20535;-83
2023/01/02 14:06:36;;;;;;;24.45;17.75;;;;;;;;;;5037931;28;20103;-83
2023/01/02 14:09:03;;;;;;;25.27;18.77;;;;;;;;;;5066069;28;20055;-82
2023/01/02 14:11:51;;;;;;;29.33;20.73;;;;;;;;;;5049666;28;20053;-81
2023/01/02 14:14:44;;;;;;;29.35;19.55;;;;;;;;;;5062718;28;20076;-84
2023/01/02 14:17:27;;;;;;;31.95;21.92;;;;;;;;;;5048808;28;20037;-83
2023/01/02 14:20:14;;;;;;;26.38;20.88;;;;;;;;;;5058779;28;20053;-84
2023/01/02 14:22:44;;;;;;;30.50;21.00;;;;;;;;;;5042278;28;20056;-84
2023/01/02 14:25:12;;;;;;;29.48;21.63;;;;;;;;;;5042645;28;20083;-83
2023/01/02 14:27:47;;;;;;;27.50;19.98;;;;;;;;;;5038564;28;20098;-84
2023/01/02 14:30:21;;;;;;;26.75;20.58;;;;;;;;;;5041552;28;20065;-84
2023/01/02 14:32:50;;;;;;;26.92;20.23;;;;;;;;;;5059076;28;20057;-82
2023/01/02 14:35:17;;;;;;;30.85;21.30;;;;;;;;;;5021161;28;20065;-84
2023/01/02 14:37:50;;;;;;;30.88;21.50;;;;;;;;;;5056359;28;20489;-82
2023/01/02 14:40:32;;;;;;;30.27;21.83;;;;;;;;;;5041534;28;20049;-84
2023/01/02 14:46:03;;;;;;;28.23;21.00;;;;;;;;;;5039829;28;20060;-83
2023/01/02 14:48:36;;;;;;;29.70;20.10;;;;;;;;;;5056077;28;20040;-84
2023/01/02 14:51:07;;;;;;;32.67;22.70;;;;;;;;;;5057401;28;20107;-86
2023/01/02 14:53:43;;;;;;;33.92;22.70;;;;;;;;;;5056201;28;20100;-84
2023/01/02 14:56:13;;;;;;;34.83;23.67;;;;;;;;;;5057091;28;20049;-83
2023/01/02 14:58:45;;;;;;;35.80;24.65;;;;;;;;;;5057303;28;20085;-83
2023/01/02 15:01:16;;;;;;;33.03;21.90;;;;;;;;;;5039191;28;20498;-82
2023/01/02 15:04:06;;;;;;;28.77;21.80;;;;;;;;;;5055626;28;20422;-83
2023/01/02 15:06:46;;;;;;;32.10;22.58;;;;;;;;;;5038689;28;20075;-84